Flight Track Log - Related Links

Times and Time Zones

All times are in EDT time to prevent confusion due to time zone crossing. See the CPT8912 flight status page for this flight to view local times or setup timezone preferences in your user account.

Time Position Orientation Groundspeed Altitude Reporting Facility
EDT Latitude Longitude Course Direction KTS MPH feet Rate Location/Type
Thu 01:14:16 PM 44.5108 -108.8786 99° East 116 133 9,100  Level Salt Lake Center
Thu 01:15:18 PM 44.5075 -108.8339 96° East 116 133 10,300 968 Climbing Salt Lake Center
Thu 01:16:20 PM 44.5042 -108.7839 95° East 113 130 11,100 339 Climbing Salt Lake Center
Thu 01:17:22 PM 44.4775 -108.7425 132° Southeast 133 153 11,000 -48 Descending Salt Lake Center
Thu 01:18:25 PM 44.4514 -108.7039 133° Southeast 140 161 11,000  Level Salt Lake Center
Thu 01:19:27 PM 44.4283 -108.6661 131° Southeast 136 157 11,000  Level Salt Lake Center
Thu 01:20:29 PM 44.4039 -108.6281 132° Southeast 133 153 11,000  Level Salt Lake Center
Thu 01:21:31 PM 44.3744 -108.5836 133° Southeast 132 152 11,000  Level Salt Lake Center
Thu 01:22:33 PM 44.3500 -108.5447 131° Southeast 132 152 11,000  Level Salt Lake Center
Thu 01:23:35 PM 44.3261 -108.5064 131° Southeast 132 152 11,000  Level Salt Lake Center
Thu 01:24:38 PM 44.3008 -108.4692 133° Southeast 132 152 11,000  Level Salt Lake Center
Thu 01:25:39 PM 44.2753 -108.4306 133° Southeast 134 154 11,000  Level Salt Lake Center
Thu 01:26:41 PM 44.2494 -108.3906 132° Southeast 136 157 11,000  Level Salt Lake Center
Thu 01:27:43 PM 44.2189 -108.3442 133° Southeast 137 158 11,000  Level Salt Lake Center
Thu 01:28:45 PM 44.1953 -108.3056 130° Southeast 135 155 11,000  Level Salt Lake Center
Thu 01:29:47 PM 44.1700 -108.2672 133° Southeast 134 154 11,000  Level Salt Lake Center
Thu 01:30:49 PM 44.1453 -108.2303 133° Southeast 133 153 11,000  Level Salt Lake Center
Thu 01:31:51 PM 44.1203 -108.1942 134° Southeast 132 152 11,000  Level Salt Lake Center
Thu 01:32:53 PM 44.0919 -108.1503 132° Southeast 130 150 11,000  Level Salt Lake Center
Thu 01:33:55 PM 44.0681 -108.1133 132° Southeast 129 148 11,000  Level Salt Lake Center
Thu 01:34:57 PM 44.0439 -108.0769 133° Southeast 129 148 11,000  Level Salt Lake Center
Thu 01:35:59 PM 44.0192 -108.0406 133° Southeast 129 148 11,000  Level Salt Lake Center
Thu 01:37:01 PM 43.9953 -108.0047 133° Southeast 128 147 11,000  Level Salt Lake Center
Thu 01:38:04 PM 43.9711 -107.9678 132° Southeast 128 147 11,000  Level Salt Lake Center
Thu 01:39:06 PM 43.9439 -107.9217 129° Southeast 129 148 11,000  Level Salt Lake Center
Thu 01:40:08 PM 43.9233 -107.8803 125° Southeast 129 148 11,000  Level Salt Lake Center
Thu 01:41:10 PM 43.9036 -107.8383 123° Southeast 130 150 11,000  Level Salt Lake Center
Thu 01:42:12 PM 43.8833 -107.7972 124° Southeast 130 150 11,000 48 Level Salt Lake Center
Thu 01:43:14 PM 43.8622 -107.7569 126° Southeast 130 150 11,100 387 Climbing Salt Lake Center
Thu 01:44:16 PM 43.8467 -107.7042 112° Southeast 127 146 11,800 484 Climbing Salt Lake Center
Thu 01:45:18 PM 43.8400 -107.6561 101° East 125 144 12,100 97 Climbing Salt Lake Center
Thu 01:46:20 PM 43.8311 -107.6031 103° East 131 151 12,000 -48 Descending Salt Lake Center
Thu 01:47:22 PM 43.8225 -107.5486 102° East 137 158 12,000 48 Level Salt Lake Center
Thu 01:48:24 PM 43.8133 -107.4967 104° East 139 160 12,100  Climbing Salt Lake Center
Thu 01:49:26 PM 43.8006 -107.4342 106° East 141 162 12,000 -48 Descending Salt Lake Center
Thu 01:50:28 PM 43.7897 -107.3811 106° East 142 163 12,000  Level Salt Lake Center
Thu 01:51:30 PM 43.7792 -107.3286 106° East 142 163 12,000 48 Level Salt Lake Center
Thu 01:52:32 PM 43.7697 -107.2764 104° East 142 163 12,100  Climbing Salt Lake Center
Thu 01:53:34 PM 43.7617 -107.2239 102° East 141 162 12,000  Descending Salt Lake Center
Thu 01:54:36 PM 43.7522 -107.1733 104° East 138 159 12,100 48 Climbing Salt Lake Center
Thu 01:55:38 PM 43.7394 -107.1136 106° East 136 157 12,100  Level Salt Lake Center
Thu 01:56:40 PM 43.7256 -107.0672 112° Southeast 134 154 12,100 -48 Level Salt Lake Center
Thu 01:57:42 PM 43.7103 -107.0203 114° Southeast 135 155 12,000  Descending Salt Lake Center
Thu 01:58:44 PM 43.6961 -106.9733 113° Southeast 133 153 12,100 48 Climbing Salt Lake Center
Thu 01:59:47 PM 43.6825 -106.9258 112° Southeast 133 153 12,100 -48 Level Salt Lake Center
Thu 02:00:49 PM 43.6642 -106.8722 115° Southeast 134 154 12,000 -55 Descending Salt Lake Center
Thu 02:01:36 PM 43.6522 -106.8325 113° Southeast 133 153 12,000  Level Denver Center
Thu 02:02:38 PM 43.6336 -106.7911 122° Southeast 135 155 12,000  Level Denver Center
Thu 02:03:40 PM 43.6067 -106.7464 130° Southeast 135 155 12,000  Level Denver Center
Thu 02:04:57 PM 43.5706 -106.7039 140° Southeast 134 154 12,000  Level Salt Lake Center
Thu 02:05:59 PM 43.5389 -106.6772 149° Southeast 136 157 12,000 48 Level Salt Lake Center
Thu 02:07:01 PM 43.5067 -106.6519 150° Southeast 138 159 12,100 55 Climbing Salt Lake Center
Thu 02:07:49 PM 43.4839 -106.6244 139° Southeast 138 159 12,100 -55 Level Denver Center
Thu 02:08:51 PM 43.4464 -106.5931 149° Southeast 141 162 12,000 -194 Descending Denver Center
Thu 02:09:53 PM 43.4139 -106.5653 148° Southeast 143 165 11,700 -435 Descending Denver Center
Thu 02:10:55 PM 43.3775 -106.5294 144° Southeast 143 165 11,100 -581 Descending Denver Center
Thu 02:11:57 PM 43.3464 -106.5000 145° Southeast 142 163 10,500 -532 Descending Denver Center
Thu 02:12:59 PM 43.3089 -106.4675 148° Southeast 142 163 10,000 -242 Descending Denver Center
Thu 02:14:01 PM 43.2778 -106.4386 146° Southeast 142 163 10,000 -387 Level Denver Center
Thu 02:15:03 PM 43.2336 -106.4389 180° South 149 171 9,200 -484 Descending Denver Center
Thu 02:16:05 PM 43.1928 -106.4417 183° South 152 175 9,000 -97 Descending Denver Center
Thu 02:17:07 PM 43.1492 -106.4444 183° South 148 170 9,000  Level Denver Center
Thu 02:18:10 PM 43.1139 -106.4469 183° South 142 163 9,000 48 Level Denver Center
Thu 02:19:12 PM 43.0750 -106.4794 211° Southwest 148 170 9,100 48 Climbing Denver Center
Thu 02:20:14 PM 43.0428 -106.5161 220° Southwest 154 177 9,100  Level Denver Center
Thu 02:21:16 PM 43.0047 -106.5578 219° Southwest 157 181 9,100 -48 Level Denver Center
Thu 02:22:18 PM 42.9722 -106.5906 216° Southwest 155 178 9,000 -48 Descending Denver Center
Thu 02:23:20 PM 42.9336 -106.6225 211° Southwest 150 173 9,000 -194 Level Denver Center
Thu 02:24:22 PM 42.8989 -106.6456 206° Southwest 147 169 8,600 -339 Descending Denver Center
Thu 02:25:24 PM 42.8597 -106.6736 208° Southwest 147 169 8,300 -290 Descending Denver Center

Login

Don't have an account? Register now (free) for customized features, flight alerts, and more!